sensor_id;sensor_type;location;lat;lon;timestamp;P1;durP1;ratioP1;P2;durP2;ratioP2
22877;SDS011;11606;45.404;12.148;2022-07-25T00:00:51;7.28;;;6.78;;
22877;SDS011;11606;45.404;12.148;2022-07-25T00:03:17;9.45;;;7.10;;
22877;SDS011;11606;45.404;12.148;2022-07-25T00:05:43;7.50;;;6.88;;
22877;SDS011;11606;45.404;12.148;2022-07-25T00:08:09;7.70;;;6.95;;
22877;SDS011;11606;45.404;12.148;2022-07-25T00:10:34;8.60;;;7.72;;
22877;SDS011;11606;45.404;12.148;2022-07-25T00:13:00;10.60;;;7.75;;
22877;SDS011;11606;45.404;12.148;2022-07-25T00:15:26;7.90;;;7.20;;
22877;SDS011;11606;45.404;12.148;2022-07-25T00:17:52;7.95;;;7.25;;
22877;SDS011;11606;45.404;12.148;2022-07-25T00:20:18;8.75;;;7.45;;
22877;SDS011;11606;45.404;12.148;2022-07-25T00:22:43;9.80;;;8.90;;
22877;SDS011;11606;45.404;12.148;2022-07-25T00:25:09;7.95;;;7.35;;
22877;SDS011;11606;45.404;12.148;2022-07-25T00:27:35;8.50;;;7.80;;
22877;SDS011;11606;45.404;12.148;2022-07-25T00:30:01;9.27;;;7.47;;
22877;SDS011;11606;45.404;12.148;2022-07-25T00:32:26;8.45;;;7.75;;
22877;SDS011;11606;45.404;12.148;2022-07-25T00:34:52;10.02;;;7.75;;
22877;SDS011;11606;45.404;12.148;2022-07-25T00:37:18;8.82;;;8.02;;
22877;SDS011;11606;45.404;12.148;2022-07-25T00:39:44;8.57;;;7.40;;
22877;SDS011;11606;45.404;12.148;2022-07-25T00:42:10;8.13;;;7.43;;
22877;SDS011;11606;45.404;12.148;2022-07-25T00:44:36;9.00;;;8.25;;
22877;SDS011;11606;45.404;12.148;2022-07-25T00:47:01;7.88;;;7.10;;
22877;SDS011;11606;45.404;12.148;2022-07-25T00:49:27;8.60;;;7.80;;
22877;SDS011;11606;45.404;12.148;2022-07-25T00:51:53;8.85;;;7.95;;
22877;SDS011;11606;45.404;12.148;2022-07-25T00:54:20;8.32;;;7.55;;
22877;SDS011;11606;45.404;12.148;2022-07-25T00:56:46;10.67;;;9.67;;
22877;SDS011;11606;45.404;12.148;2022-07-25T00:59:12;9.27;;;8.38;;
22877;SDS011;11606;45.404;12.148;2022-07-25T01:01:39;9.93;;;8.97;;
22877;SDS011;11606;45.404;12.148;2022-07-25T01:04:06;10.15;;;9.15;;
22877;SDS011;11606;45.404;12.148;2022-07-25T01:06:32;9.43;;;8.43;;
22877;SDS011;11606;45.404;12.148;2022-07-25T01:08:58;9.77;;;8.87;;
22877;SDS011;11606;45.404;12.148;2022-07-25T01:11:25;9.33;;;8.53;;
22877;SDS011;11606;45.404;12.148;2022-07-25T01:13:51;9.70;;;8.90;;
22877;SDS011;11606;45.404;12.148;2022-07-25T01:16:17;9.70;;;8.83;;
22877;SDS011;11606;45.404;12.148;2022-07-25T01:18:43;10.30;;;8.80;;
22877;SDS011;11606;45.404;12.148;2022-07-25T01:21:09;10.03;;;8.10;;
22877;SDS011;11606;45.404;12.148;2022-07-25T01:23:35;8.13;;;7.37;;
22877;SDS011;11606;45.404;12.148;2022-07-25T01:26:01;8.30;;;7.50;;
22877;SDS011;11606;45.404;12.148;2022-07-25T01:28:27;8.10;;;7.40;;
22877;SDS011;11606;45.404;12.148;2022-07-25T01:30:53;9.40;;;8.40;;
22877;SDS011;11606;45.404;12.148;2022-07-25T01:33:19;7.73;;;7.03;;
22877;SDS011;11606;45.404;12.148;2022-07-25T01:35:45;8.93;;;7.77;;
22877;SDS011;11606;45.404;12.148;2022-07-25T01:38:13;9.13;;;8.43;;
22877;SDS011;11606;45.404;12.148;2022-07-25T01:40:39;9.47;;;8.57;;
22877;SDS011;11606;45.404;12.148;2022-07-25T01:43:06;9.73;;;8.80;;
22877;SDS011;11606;45.404;12.148;2022-07-25T01:45:32;9.30;;;8.27;;
22877;SDS011;11606;45.404;12.148;2022-07-25T01:47:58;8.73;;;7.77;;
22877;SDS011;11606;45.404;12.148;2022-07-25T01:50:24;8.70;;;7.77;;
22877;SDS011;11606;45.404;12.148;2022-07-25T01:52:49;9.77;;;8.87;;
22877;SDS011;11606;45.404;12.148;2022-07-25T01:55:15;8.83;;;7.90;;
22877;SDS011;11606;45.404;12.148;2022-07-25T01:57:41;8.90;;;8.20;;
22877;SDS011;11606;45.404;12.148;2022-07-25T02:00:08;9.43;;;8.63;;
22877;SDS011;11606;45.404;12.148;2022-07-25T02:02:35;11.07;;;8.70;;
22877;SDS011;11606;45.404;12.148;2022-07-25T02:05:01;9.77;;;8.83;;
22877;SDS011;11606;45.404;12.148;2022-07-25T02:07:28;10.30;;;9.30;;
22877;SDS011;11606;45.404;12.148;2022-07-25T02:09:53;8.97;;;8.23;;
22877;SDS011;11606;45.404;12.148;2022-07-25T02:12:19;9.20;;;8.40;;
22877;SDS011;11606;45.404;12.148;2022-07-25T02:14:45;9.20;;;8.30;;
22877;SDS011;11606;45.404;12.148;2022-07-25T02:17:11;9.43;;;8.63;;
22877;SDS011;11606;45.404;12.148;2022-07-25T02:19:36;11.23;;;8.70;;
22877;SDS011;11606;45.404;12.148;2022-07-25T02:22:02;8.77;;;8.07;;
22877;SDS011;11606;45.404;12.148;2022-07-25T02:24:28;10.23;;;8.47;;
22877;SDS011;11606;45.404;12.148;2022-07-25T02:26:54;9.57;;;8.57;;
22877;SDS011;11606;45.404;12.148;2022-07-25T02:29:20;9.37;;;8.40;;
22877;SDS011;11606;45.404;12.148;2022-07-25T02:31:46;8.80;;;7.70;;
22877;SDS011;11606;45.404;12.148;2022-07-25T02:34:11;10.07;;;9.07;;
22877;SDS011;11606;45.404;12.148;2022-07-25T02:36:37;10.47;;;8.83;;
22877;SDS011;11606;45.404;12.148;2022-07-25T02:39:03;8.97;;;7.97;;
22877;SDS011;11606;45.404;12.148;2022-07-25T02:41:29;8.87;;;8.10;;
22877;SDS011;11606;45.404;12.148;2022-07-25T02:43:55;8.93;;;7.97;;
22877;SDS011;11606;45.404;12.148;2022-07-25T02:46:21;10.30;;;8.07;;
22877;SDS011;11606;45.404;12.148;2022-07-25T02:48:46;8.53;;;7.70;;
22877;SDS011;11606;45.404;12.148;2022-07-25T02:51:12;9.03;;;8.30;;
22877;SDS011;11606;45.404;12.148;2022-07-25T02:53:38;9.33;;;8.47;;
22877;SDS011;11606;45.404;12.148;2022-07-25T02:56:04;10.13;;;8.33;;
22877;SDS011;11606;45.404;12.148;2022-07-25T02:58:30;9.27;;;8.37;;
22877;SDS011;11606;45.404;12.148;2022-07-25T03:00:55;9.63;;;8.73;;
22877;SDS011;11606;45.404;12.148;2022-07-25T03:03:21;9.90;;;9.10;;
22877;SDS011;11606;45.404;12.148;2022-07-25T03:05:47;9.63;;;8.63;;
22877;SDS011;11606;45.404;12.148;2022-07-25T03:08:13;10.03;;;8.70;;
22877;SDS011;11606;45.404;12.148;2022-07-25T03:10:38;9.33;;;8.47;;
22877;SDS011;11606;45.404;12.148;2022-07-25T03:13:04;9.10;;;8.30;;
22877;SDS011;11606;45.404;12.148;2022-07-25T03:15:30;9.57;;;8.70;;
22877;SDS011;11606;45.404;12.148;2022-07-25T03:17:56;9.93;;;9.13;;
22877;SDS011;11606;45.404;12.148;2022-07-25T03:20:21;10.57;;;9.67;;
22877;SDS011;11606;45.404;12.148;2022-07-25T03:22:47;10.33;;;9.33;;
22877;SDS011;11606;45.404;12.148;2022-07-25T03:25:13;11.10;;;9.93;;
22877;SDS011;11606;45.404;12.148;2022-07-25T03:27:39;10.50;;;9.43;;
22877;SDS011;11606;45.404;12.148;2022-07-25T03:30:05;9.93;;;9.13;;
22877;SDS011;11606;45.404;12.148;2022-07-25T03:32:31;10.00;;;9.00;;
22877;SDS011;11606;45.404;12.148;2022-07-25T03:34:57;9.97;;;9.13;;
22877;SDS011;11606;45.404;12.148;2022-07-25T03:37:23;10.97;;;9.80;;
22877;SDS011;11606;45.404;12.148;2022-07-25T03:39:48;9.50;;;8.80;;
22877;SDS011;11606;45.404;12.148;2022-07-25T03:42:14;11.20;;;9.03;;
22877;SDS011;11606;45.404;12.148;2022-07-25T03:44:40;10.43;;;9.43;;
22877;SDS011;11606;45.404;12.148;2022-07-25T03:47:06;10.10;;;9.20;;
22877;SDS011;11606;45.404;12.148;2022-07-25T03:49:31;11.43;;;10.43;;
22877;SDS011;11606;45.404;12.148;2022-07-25T03:51:57;10.87;;;9.80;;
22877;SDS011;11606;45.404;12.148;2022-07-25T03:54:23;11.20;;;10.17;;
22877;SDS011;11606;45.404;12.148;2022-07-25T03:56:50;11.47;;;10.47;;
22877;SDS011;11606;45.404;12.148;2022-07-25T03:59:17;11.10;;;9.47;;
22877;SDS011;11606;45.404;12.148;2022-07-25T04:01:44;11.33;;;9.80;;
22877;SDS011;11606;45.404;12.148;2022-07-25T04:04:12;10.43;;;9.63;;
22877;SDS011;11606;45.404;12.148;2022-07-25T04:06:38;11.10;;;10.00;;
22877;SDS011;11606;45.404;12.148;2022-07-25T04:09:05;10.67;;;9.67;;
22877;SDS011;11606;45.404;12.148;2022-07-25T04:11:32;10.40;;;9.30;;
22877;SDS011;11606;45.404;12.148;2022-07-25T04:14:00;11.47;;;10.30;;
22877;SDS011;11606;45.404;12.148;2022-07-25T04:16:26;11.47;;;10.47;;
22877;SDS011;11606;45.404;12.148;2022-07-25T10:07:59;6.97;;;5.28;;
22877;SDS011;11606;45.404;12.148;2022-07-25T10:10:30;6.13;;;5.60;;
22877;SDS011;11606;45.404;12.148;2022-07-25T10:13:12;6.75;;;5.25;;
22877;SDS011;11606;45.404;12.148;2022-07-25T10:18:12;8.07;;;5.43;;
22877;SDS011;11606;45.404;12.148;2022-07-25T10:20:39;5.90;;;5.40;;
22877;SDS011;11606;45.404;12.148;2022-07-25T10:23:15;5.95;;;5.35;;
22877;SDS011;11606;45.404;12.148;2022-07-25T10:25:42;6.07;;;5.57;;
22877;SDS011;11606;45.404;12.148;2022-07-25T10:28:08;5.85;;;5.35;;
22877;SDS011;11606;45.404;12.148;2022-07-25T10:30:37;6.72;;;5.53;;
22877;SDS011;11606;45.404;12.148;2022-07-25T10:33:09;5.70;;;5.20;;
22877;SDS011;11606;45.404;12.148;2022-07-25T10:35:40;5.60;;;5.10;;
22877;SDS011;11606;45.404;12.148;2022-07-25T10:38:06;7.28;;;6.18;;
22877;SDS011;11606;45.404;12.148;2022-07-25T10:40:42;5.85;;;5.35;;
22877;SDS011;11606;45.404;12.148;2022-07-25T10:43:11;5.88;;;5.40;;
22877;SDS011;11606;45.404;12.148;2022-07-25T10:45:52;5.40;;;4.95;;
22877;SDS011;11606;45.404;12.148;2022-07-25T10:48:25;5.43;;;4.93;;
22877;SDS011;11606;45.404;12.148;2022-07-25T10:51:00;6.30;;;5.57;;
22877;SDS011;11606;45.404;12.148;2022-07-25T10:56:13;5.88;;;5.38;;
22877;SDS011;11606;45.404;12.148;2022-07-25T11:01:21;6.97;;;4.80;;
22877;SDS011;11606;45.404;12.148;2022-07-25T11:03:48;5.57;;;5.10;;
22877;SDS011;11606;45.404;12.148;2022-07-25T11:06:15;6.10;;;5.53;;
22877;SDS011;11606;45.404;12.148;2022-07-25T11:08:42;7.00;;;5.47;;
22877;SDS011;11606;45.404;12.148;2022-07-25T11:11:09;5.10;;;4.70;;
22877;SDS011;11606;45.404;12.148;2022-07-25T11:13:36;5.85;;;5.20;;
22877;SDS011;11606;45.404;12.148;2022-07-25T11:16:06;6.28;;;5.75;;
22877;SDS011;11606;45.404;12.148;2022-07-25T11:18:37;10.93;;;5.63;;
22877;SDS011;11606;45.404;12.148;2022-07-25T11:21:06;5.45;;;4.95;;
22877;SDS011;11606;45.404;12.148;2022-07-25T11:23:33;5.90;;;5.32;;
22877;SDS011;11606;45.404;12.148;2022-07-25T11:26:05;6.18;;;5.68;;
22877;SDS011;11606;45.404;12.148;2022-07-25T11:28:36;5.82;;;5.32;;
22877;SDS011;11606;45.404;12.148;2022-07-25T11:31:13;5.70;;;5.30;;
22877;SDS011;11606;45.404;12.148;2022-07-25T11:33:45;5.50;;;5.10;;
22877;SDS011;11606;45.404;12.148;2022-07-25T11:36:12;5.43;;;4.93;;
22877;SDS011;11606;45.404;12.148;2022-07-25T11:38:38;6.25;;;5.65;;
22877;SDS011;11606;45.404;12.148;2022-07-25T11:41:04;5.68;;;5.18;;
22877;SDS011;11606;45.404;12.148;2022-07-25T11:43:31;5.50;;;5.00;;
22877;SDS011;11606;45.404;12.148;2022-07-25T11:46:04;6.88;;;5.20;;
22877;SDS011;11606;45.404;12.148;2022-07-25T11:48:35;7.03;;;5.10;;
22877;SDS011;11606;45.404;12.148;2022-07-25T11:51:13;7.32;;;4.97;;
22877;SDS011;11606;45.404;12.148;2022-07-25T11:53:46;7.07;;;4.60;;
22877;SDS011;11606;45.404;12.148;2022-07-25T11:56:15;5.22;;;4.75;;
22877;SDS011;11606;45.404;12.148;2022-07-25T11:58:59;12.48;;;4.85;;
22877;SDS011;11606;45.404;12.148;2022-07-25T12:01:32;5.45;;;4.70;;
22877;SDS011;11606;45.404;12.148;2022-07-25T12:06:39;4.60;;;4.20;;
22877;SDS011;11606;45.404;12.148;2022-07-25T12:09:09;5.63;;;4.88;;
22877;SDS011;11606;45.404;12.148;2022-07-25T12:11:46;4.40;;;4.10;;
22877;SDS011;11606;45.404;12.148;2022-07-25T12:14:13;7.05;;;4.65;;
22877;SDS011;11606;45.404;12.148;2022-07-25T12:16:39;4.88;;;4.40;;
22877;SDS011;11606;45.404;12.148;2022-07-25T12:19:11;5.85;;;4.28;;
22877;SDS011;11606;45.404;12.148;2022-07-25T12:21:43;4.63;;;4.22;;
22877;SDS011;11606;45.404;12.148;2022-07-25T12:24:09;6.25;;;4.55;;
22877;SDS011;11606;45.404;12.148;2022-07-25T12:26:35;4.78;;;4.38;;
22877;SDS011;11606;45.404;12.148;2022-07-25T12:29:01;5.00;;;4.53;;
22877;SDS011;11606;45.404;12.148;2022-07-25T12:31:27;4.65;;;4.25;;
22877;SDS011;11606;45.404;12.148;2022-07-25T12:33:53;4.80;;;4.40;;
22877;SDS011;11606;45.404;12.148;2022-07-25T12:36:19;4.72;;;4.32;;
22877;SDS011;11606;45.404;12.148;2022-07-25T12:38:45;4.80;;;4.13;;
22877;SDS011;11606;45.404;12.148;2022-07-25T12:41:11;5.20;;;4.80;;
22877;SDS011;11606;45.404;12.148;2022-07-25T12:43:37;5.07;;;4.38;;
22877;SDS011;11606;45.404;12.148;2022-07-25T12:46:04;8.50;;;4.88;;
22877;SDS011;11606;45.404;12.148;2022-07-25T12:48:30;4.65;;;4.25;;
22877;SDS011;11606;45.404;12.148;2022-07-25T12:50:56;4.70;;;4.22;;
22877;SDS011;11606;45.404;12.148;2022-07-25T12:53:22;5.35;;;4.85;;
22877;SDS011;11606;45.404;12.148;2022-07-25T12:55:49;5.18;;;4.70;;
22877;SDS011;11606;45.404;12.148;2022-07-25T12:58:15;6.18;;;4.60;;
22877;SDS011;11606;45.404;12.148;2022-07-25T13:00:42;5.50;;;4.47;;
22877;SDS011;11606;45.404;12.148;2022-07-25T13:03:08;7.03;;;4.38;;
22877;SDS011;11606;45.404;12.148;2022-07-25T13:05:34;5.50;;;4.15;;
22877;SDS011;11606;45.404;12.148;2022-07-25T13:08:02;4.35;;;3.97;;
22877;SDS011;11606;45.404;12.148;2022-07-25T13:10:29;19.45;;;6.93;;
22877;SDS011;11606;45.404;12.148;2022-07-25T13:12:55;4.93;;;4.53;;
22877;SDS011;11606;45.404;12.148;2022-07-25T13:15:21;4.63;;;4.20;;
22877;SDS011;11606;45.404;12.148;2022-07-25T13:17:47;8.13;;;4.90;;
22877;SDS011;11606;45.404;12.148;2022-07-25T13:20:14;4.88;;;4.47;;
22877;SDS011;11606;45.404;12.148;2022-07-25T13:22:45;4.40;;;3.97;;
22877;SDS011;11606;45.404;12.148;2022-07-25T13:25:26;4.63;;;3.85;;
22877;SDS011;11606;45.404;12.148;2022-07-25T13:27:54;4.40;;;4.10;;
22877;SDS011;11606;45.404;12.148;2022-07-25T13:30:20;4.28;;;3.97;;
22877;SDS011;11606;45.404;12.148;2022-07-25T13:32:45;6.80;;;4.18;;
22877;SDS011;11606;45.404;12.148;2022-07-25T13:35:11;4.45;;;4.15;;
22877;SDS011;11606;45.404;12.148;2022-07-25T13:37:37;4.50;;;4.20;;
22877;SDS011;11606;45.404;12.148;2022-07-25T13:40:03;4.53;;;4.22;;
22877;SDS011;11606;45.404;12.148;2022-07-25T13:42:30;4.22;;;3.85;;
22877;SDS011;11606;45.404;12.148;2022-07-25T13:44:56;4.57;;;4.18;;
22877;SDS011;11606;45.404;12.148;2022-07-25T13:47:22;4.80;;;4.35;;
22877;SDS011;11606;45.404;12.148;2022-07-25T13:49:48;12.23;;;4.63;;
22877;SDS011;11606;45.404;12.148;2022-07-25T13:52:14;4.22;;;3.92;;
22877;SDS011;11606;45.404;12.148;2022-07-25T13:54:41;4.40;;;4.10;;
22877;SDS011;11606;45.404;12.148;2022-07-25T13:57:07;8.45;;;4.55;;
22877;SDS011;11606;45.404;12.148;2022-07-25T13:59:33;6.40;;;4.47;;
22877;SDS011;11606;45.404;12.148;2022-07-25T14:02:00;4.70;;;4.32;;
22877;SDS011;11606;45.404;12.148;2022-07-25T14:04:26;18.17;;;5.47;;
22877;SDS011;11606;45.404;12.148;2022-07-25T14:06:53;6.53;;;4.70;;
22877;SDS011;11606;45.404;12.148;2022-07-25T14:09:20;4.82;;;4.35;;
22877;SDS011;11606;45.404;12.148;2022-07-25T14:11:46;4.97;;;4.18;;
22877;SDS011;11606;45.404;12.148;2022-07-25T14:14:12;4.15;;;3.80;;
22877;SDS011;11606;45.404;12.148;2022-07-25T14:16:38;4.82;;;4.38;;
22877;SDS011;11606;45.404;12.148;2022-07-25T14:19:04;4.20;;;3.88;;
22877;SDS011;11606;45.404;12.148;2022-07-25T14:21:30;4.60;;;4.20;;
22877;SDS011;11606;45.404;12.148;2022-07-25T14:23:56;7.25;;;4.03;;
22877;SDS011;11606;45.404;12.148;2022-07-25T14:26:21;4.97;;;4.50;;
22877;SDS011;11606;45.404;12.148;2022-07-25T14:28:47;4.43;;;4.03;;
22877;SDS011;11606;45.404;12.148;2022-07-25T14:31:14;4.70;;;4.30;;
22877;SDS011;11606;45.404;12.148;2022-07-25T14:33:39;5.35;;;4.28;;
22877;SDS011;11606;45.404;12.148;2022-07-25T14:36:06;4.43;;;4.03;;
22877;SDS011;11606;45.404;12.148;2022-07-25T14:38:33;4.75;;;4.35;;
22877;SDS011;11606;45.404;12.148;2022-07-25T14:40:59;5.00;;;4.60;;
22877;SDS011;11606;45.404;12.148;2022-07-25T14:43:25;4.72;;;4.32;;
22877;SDS011;11606;45.404;12.148;2022-07-25T14:45:51;4.53;;;4.15;;
22877;SDS011;11606;45.404;12.148;2022-07-25T14:48:17;5.18;;;4.45;;
22877;SDS011;11606;45.404;12.148;2022-07-25T14:50:43;5.32;;;4.82;;
22877;SDS011;11606;45.404;12.148;2022-07-25T14:53:09;5.05;;;4.43;;
22877;SDS011;11606;45.404;12.148;2022-07-25T14:55:36;4.93;;;4.53;;
22877;SDS011;11606;45.404;12.148;2022-07-25T14:58:02;8.48;;;4.40;;
22877;SDS011;11606;45.404;12.148;2022-07-25T15:00:29;11.45;;;4.82;;
22877;SDS011;11606;45.404;12.148;2022-07-25T15:02:55;6.45;;;4.30;;
22877;SDS011;11606;45.404;12.148;2022-07-25T15:05:21;5.10;;;4.32;;
22877;SDS011;11606;45.404;12.148;2022-07-25T15:07:47;5.03;;;4.63;;
22877;SDS011;11606;45.404;12.148;2022-07-25T15:10:13;5.35;;;4.13;;
22877;SDS011;11606;45.404;12.148;2022-07-25T15:12:39;6.40;;;4.47;;
22877;SDS011;11606;45.404;12.148;2022-07-25T15:15:05;4.60;;;4.28;;
22877;SDS011;11606;45.404;12.148;2022-07-25T15:17:31;4.32;;;4.03;;
22877;SDS011;11606;45.404;12.148;2022-07-25T15:19:57;5.00;;;4.55;;
22877;SDS011;11606;45.404;12.148;2022-07-25T15:22:23;5.07;;;4.57;;
22877;SDS011;11606;45.404;12.148;2022-07-25T15:24:49;6.85;;;4.63;;
22877;SDS011;11606;45.404;12.148;2022-07-25T15:27:15;4.47;;;4.07;;
22877;SDS011;11606;45.404;12.148;2022-07-25T15:29:41;4.40;;;4.07;;
22877;SDS011;11606;45.404;12.148;2022-07-25T15:32:08;5.15;;;4.32;;
22877;SDS011;11606;45.404;12.148;2022-07-25T15:34:34;4.70;;;4.40;;
22877;SDS011;11606;45.404;12.148;2022-07-25T15:37:00;9.02;;;5.38;;
22877;SDS011;11606;45.404;12.148;2022-07-25T15:39:25;8.55;;;5.10;;
22877;SDS011;11606;45.404;12.148;2022-07-25T15:41:52;5.03;;;4.63;;
22877;SDS011;11606;45.404;12.148;2022-07-25T15:44:17;4.93;;;4.50;;
22877;SDS011;11606;45.404;12.148;2022-07-25T15:46:44;6.30;;;5.43;;
22877;SDS011;11606;45.404;12.148;2022-07-25T15:49:10;5.30;;;4.90;;
22877;SDS011;11606;45.404;12.148;2022-07-25T15:51:36;6.60;;;5.20;;
22877;SDS011;11606;45.404;12.148;2022-07-25T15:54:02;5.30;;;4.88;;
22877;SDS011;11606;45.404;12.148;2022-07-25T15:56:28;5.32;;;4.90;;
22877;SDS011;11606;45.404;12.148;2022-07-25T15:58:55;5.00;;;4.63;;
22877;SDS011;11606;45.404;12.148;2022-07-25T16:01:21;4.72;;;4.43;;
22877;SDS011;11606;45.404;12.148;2022-07-25T16:03:47;5.35;;;4.95;;
22877;SDS011;11606;45.404;12.148;2022-07-25T16:06:13;6.05;;;4.60;;
22877;SDS011;11606;45.404;12.148;2022-07-25T16:08:39;5.72;;;4.72;;
22877;SDS011;11606;45.404;12.148;2022-07-25T16:11:05;4.78;;;4.47;;
22877;SDS011;11606;45.404;12.148;2022-07-25T16:13:31;5.28;;;4.78;;
22877;SDS011;11606;45.404;12.148;2022-07-25T16:15:57;5.60;;;5.07;;
